Dobrodošli na spletni strani vremenske postaje Senovo. Vse informacije so informativnega značaja, saj vremenska postaja ni del državne mreže meteoroloških postaj. AKTUALNIH OBVESTIL NI.


Sneg/Led Od: 22-02-2018 00:00 Do: 23-02-2018 23:59 Opozorilo za: Sneg/Led Stopnja: Rumena info button
Veter Od: 22-02-2018 00:00 Do: 23:59 Opozorilo za: Veter Stopnja: Rumena info button

Pogled proti Armezu več informacij Pogled proti Armezu


Lisca več informacij Lisca


Radar strel več informacij blitzortung!


opozorilo za sneg/led več informacij rain snow radar


Obiščite še:

Template documentation
and downloads

And another site



Weather Underground, zgodovina - Tekstovno

Dnevni povzetek za Februar 11, 2018 Enote:  Obe    Angleško   Metrično
« Predhodni Dan
Naslednji Dan »
Dnevni Tedenski Mesečni Letni Po meri
  Višja: Nižja: Povprečje:
Temperatura: TemperatureC °F /  -17.8 °C -2.9 °F /  -19.4 °C 0.3 °F /  -17.6 °C
Točka rosišča: DewpointC °F /  -17.8 °C -7.1 °F /  -21.7 °C -4 °F /  -20 °C
Vlažnost: Humidity % 51 % 74 %
Hitrost vetra: WindSpeedKMH mph /  0 km/h - 1.2 mph /  1.9 km/h
Sunki vetra: WindSpeedGustKMH mph /  0 km/h - -
Veter:- - SSW
Zračni tlak: PressurehPa in /  0 hPa 1007.0 in /  34097 hPa -
Padavine: 0.0 in /  0 mm    
Historical Graphs
 
 
Tabelarni podarki za Februar 11, 2018
Čas Temperatura Točka rosišča Zračni tlak Veter Hitrost vetra Sunki vetra Vlažnost Intenziteta padavin (urna)
TemperatureC °F /  -17.8 °C DewpointC °F /  -17.8 °C PressurehPa in /  0 hPa Calm     Humidity % HourlyPrecipMM in /  0 mm
00:01 1.0 °F /  -17.2 °C -2.9 °F /  -19.4 °C 1013.1 in /  34303.6 hPa SE 5.3 mph /  8.5 km/h 9.7 mph /  15.6 km/h 75 % 0.0 in /  0 mm
00:06 0.9 °F /  -17.3 °C -3.1 °F /  -19.5 °C 1013.1 in /  34303.6 hPa SE 4.2 mph /  6.8 km/h 6.4 mph /  10.3 km/h 75 % 0.0 in /  0 mm
00:11 0.9 °F /  -17.3 °C -3.1 °F /  -19.5 °C 1013.1 in /  34303.6 hPa ESE 3.2 mph /  5.1 km/h 6.1 mph /  9.8 km/h 75 % 0.0 in /  0 mm
00:16 0.9 °F /  -17.3 °C -2.8 °F /  -19.3 °C 1013.1 in /  34303.6 hPa ESE 2.9 mph /  4.7 km/h 5.0 mph /  8 km/h 76 % 0.0 in /  0 mm
00:21 0.9 °F /  -17.3 °C -2.8 °F /  -19.3 °C 1013.1 in /  34303.6 hPa ESE 3.5 mph /  5.6 km/h 5.0 mph /  8 km/h 76 % 0.0 in /  0 mm
00:26 0.9 °F /  -17.3 °C -2.8 °F /  -19.3 °C 1013.1 in /  34303.6 hPa SE 2.9 mph /  4.7 km/h 4.7 mph /  7.6 km/h 76 % 0.0 in /  0 mm
00:28 0.8 °F /  -17.3 °C -2.9 °F /  -19.4 °C 1013.1 in /  34303.6 hPa SE 2.7 mph /  4.3 km/h 4.7 mph /  7.6 km/h 76 % 0.0 in /  0 mm
00:33 0.7 °F /  -17.4 °C -3.1 °F /  -19.5 °C 1013.1 in /  34303.6 hPa SSE 2.3 mph /  3.7 km/h 4.0 mph /  6.4 km/h 76 % 0.0 in /  0 mm
00:38 0.7 °F /  -17.4 °C -3.1 °F /  -19.5 °C 1013.1 in /  34303.6 hPa SE 2.6 mph /  4.2 km/h 5.0 mph /  8 km/h 76 % 0.0 in /  0 mm
00:43 0.6 °F /  -17.4 °C -3.2 °F /  -19.6 °C 1013.1 in /  34303.6 hPa ESE 1.3 mph /  2.1 km/h 5.0 mph /  8 km/h 76 % 0.0 in /  0 mm
00:48 0.6 °F /  -17.4 °C -3.2 °F /  -19.6 °C 1013.1 in /  34303.6 hPa Calm     76 % 0.0 in /  0 mm
00:53 0.5 °F /  -17.5 °C -3.2 °F /  -19.6 °C 1013.1 in /  34303.6 hPa West 0.2 mph /  0.3 km/h 3.2 mph /  5.1 km/h 76 % 0.0 in /  0 mm
00:58 0.5 °F /  -17.5 °C -3.2 °F /  -19.6 °C 1013.1 in /  34303.6 hPa WSW 0.8 mph /  1.3 km/h 4.7 mph /  7.6 km/h 76 % 0.0 in /  0 mm
01:03 0.5 °F /  -17.5 °C -3.2 °F /  -19.6 °C 1013.1 in /  34303.6 hPa SW 0.8 mph /  1.3 km/h 4.7 mph /  7.6 km/h 76 % 0.0 in /  0 mm
01:08 0.4 °F /  -17.6 °C -3.3 °F /  -19.6 °C 1013.1 in /  34303.6 hPa SSW 0.5 mph /  0.8 km/h 2.1 mph /  3.4 km/h 76 % 0.0 in /  0 mm
01:13 0.4 °F /  -17.6 °C -3.3 °F /  -19.6 °C 1013.1 in /  34303.6 hPa SSW 0.2 mph /  0.3 km/h 2.1 mph /  3.4 km/h 76 % 0.0 in /  0 mm
01:18 0.4 °F /  -17.6 °C -3.3 °F /  -19.6 °C 1013.1 in /  34303.6 hPa South 0.6 mph /  1 km/h 3.2 mph /  5.1 km/h 76 % 0.0 in /  0 mm
01:23 0.4 °F /  -17.6 °C -3.3 °F /  -19.6 °C 1013.1 in /  34303.6 hPa SSE 1.0 mph /  1.6 km/h 3.2 mph /  5.1 km/h 76 % 0.0 in /  0 mm
01:28 0.4 °F /  -17.6 °C -3.2 °F /  -19.6 °C 1013.1 in /  34303.6 hPa SSE 0.5 mph /  0.8 km/h 4.3 mph /  6.9 km/h 77 % 0.0 in /  0 mm
01:33 0.3 °F /  -17.6 °C -3.3 °F /  -19.6 °C 1013.1 in /  34303.6 hPa SE 1.3 mph /  2.1 km/h 4.7 mph /  7.6 km/h 77 % 0.0 in /  0 mm
01:38 0.3 °F /  -17.6 °C -3.3 °F /  -19.6 °C 1013.1 in /  34303.6 hPa SE 1.8 mph /  2.9 km/h 4.7 mph /  7.6 km/h 77 % 0.0 in /  0 mm
01:43 0.3 °F /  -17.6 °C -3.3 °F /  -19.6 °C 1013.1 in /  34303.6 hPa SE 1.4 mph /  2.3 km/h 3.5 mph /  5.6 km/h 77 % 0.0 in /  0 mm
01:48 0.3 °F /  -17.6 °C -3.3 °F /  -19.6 °C 1013.1 in /  34303.6 hPa SSE 1.6 mph /  2.6 km/h 4.0 mph /  6.4 km/h 77 % 0.0 in /  0 mm
01:53 0.3 °F /  -17.6 °C -3.3 °F /  -19.6 °C 1013.1 in /  34303.6 hPa SSE 0.8 mph /  1.3 km/h 4.0 mph /  6.4 km/h 77 % 0.0 in /  0 mm
01:58 0.3 °F /  -17.6 °C -3.3 °F /  -19.6 °C 1013.1 in /  34303.6 hPa ESE 0.6 mph /  1 km/h 4.7 mph /  7.6 km/h 77 % 0.0 in /  0 mm
02:03 0.3 °F /  -17.6 °C -3.3 °F /  -19.6 °C 1013.1 in /  34303.6 hPa ESE 0.6 mph /  1 km/h 4.7 mph /  7.6 km/h 77 % 0.0 in /  0 mm
02:08 0.3 °F /  -17.6 °C -3.3 °F /  -19.6 °C 1013.1 in /  34303.6 hPa Calm     77 % 0.0 in /  0 mm
02:13 0.3 °F /  -17.6 °C -3.3 °F /  -19.6 °C 1013.1 in /  34303.6 hPa Calm     77 % 0.0 in /  0 mm
02:19 0.3 °F /  -17.6 °C -3.3 °F /  -19.6 °C 1013.1 in /  34303.6 hPa SSE 0.3 mph /  0.5 km/h 4.7 mph /  7.6 km/h 77 % 0.0 in /  0 mm
02:24 0.2 °F /  -17.7 °C -3.3 °F /  -19.6 °C 1012.1 in /  34269.7 hPa SE 1.3 mph /  2.1 km/h 4.7 mph /  7.6 km/h 77 % 0.0 in /  0 mm
02:29 0.2 °F /  -17.7 °C -3.3 °F /  -19.6 °C 1012.1 in /  34269.7 hPa SE 1.3 mph /  2.1 km/h 4.0 mph /  6.4 km/h 77 % 0.0 in /  0 mm
02:34 0.1 °F /  -17.7 °C -3.4 °F /  -19.7 °C 1012.1 in /  34269.7 hPa SE 0.5 mph /  0.8 km/h 2.6 mph /  4.2 km/h 77 % 0.0 in /  0 mm
02:39 0.1 °F /  -17.7 °C -3.4 °F /  -19.7 °C 1012.1 in /  34269.7 hPa SE 0.3 mph /  0.5 km/h 4.0 mph /  6.4 km/h 77 % 0.0 in /  0 mm
02:44 0.1 °F /  -17.7 °C -3.3 °F /  -19.6 °C 1012.1 in /  34269.7 hPa SE 1.0 mph /  1.6 km/h 4.0 mph /  6.4 km/h 78 % 0.0 in /  0 mm
02:49 0.0 °F /  -17.8 °C -3.4 °F /  -19.7 °C 1012.1 in /  34269.7 hPa East 1.3 mph /  2.1 km/h 4.3 mph /  6.9 km/h 78 % 0.0 in /  0 mm
02:54 0.1 °F /  -17.7 °C -3.3 °F /  -19.6 °C 1012.1 in /  34269.7 hPa ESE 1.3 mph /  2.1 km/h 6.4 mph /  10.3 km/h 78 % 0.0 in /  0 mm
02:59 0.1 °F /  -17.7 °C -3.3 °F /  -19.6 °C 1012.1 in /  34269.7 hPa SE 1.3 mph /  2.1 km/h 6.4 mph /  10.3 km/h 78 % 0.0 in /  0 mm
03:04 0.1 °F /  -17.7 °C -3.3 °F /  -19.6 °C 1012.1 in /  34269.7 hPa ESE 0.5 mph /  0.8 km/h 3.5 mph /  5.6 km/h 78 % 0.0 in /  0 mm
03:09 0.1 °F /  -17.7 °C -3.3 °F /  -19.6 °C 1012.1 in /  34269.7 hPa Calm     78 % 0.0 in /  0 mm
03:14 -0.2 °F /  -17.9 °C -3.6 °F /  -19.8 °C 1012.1 in /  34269.7 hPa Calm   3.5 mph /  5.6 km/h 78 % 0.0 in /  0 mm
03:19 -0.3 °F /  -17.9 °C -3.7 °F /  -19.8 °C 1012.1 in /  34269.7 hPa NW 0.5 mph /  0.8 km/h 3.5 mph /  5.6 km/h 78 % 0.0 in /  0 mm
03:24 -0.3 °F /  -17.9 °C -3.7 °F /  -19.8 °C 1012.1 in /  34269.7 hPa WSW 0.8 mph /  1.3 km/h 4.0 mph /  6.4 km/h 78 % 0.0 in /  0 mm
03:29 -0.3 °F /  -17.9 °C -3.7 °F /  -19.8 °C 1012.1 in /  34269.7 hPa SW 1.9 mph /  3.1 km/h 4.3 mph /  6.9 km/h 78 % 0.0 in /  0 mm
03:34 -0.8 °F /  -18.2 °C -4.2 °F /  -20.1 °C 1012.1 in /  34269.7 hPa SW 1.4 mph /  2.3 km/h 4.3 mph /  6.9 km/h 78 % 0.0 in /  0 mm
03:39 -0.8 °F /  -18.2 °C -4.2 °F /  -20.1 °C 1012.1 in /  34269.7 hPa Calm   1.8 mph /  2.9 km/h 78 % 0.0 in /  0 mm
03:44 -1.0 °F /  -18.3 °C -4.3 °F /  -20.2 °C 1012.1 in /  34269.7 hPa SSW 0.6 mph /  1 km/h 4.7 mph /  7.6 km/h 78 % 0.0 in /  0 mm
03:49 -1.2 °F /  -18.4 °C -4.6 °F /  -20.3 °C 1012.1 in /  34269.7 hPa SSW 0.6 mph /  1 km/h 4.7 mph /  7.6 km/h 78 % 0.0 in /  0 mm
03:54 -1.2 °F /  -18.4 °C -4.6 °F /  -20.3 °C 1012.1 in /  34269.7 hPa Calm     78 % 0.0 in /  0 mm
03:59 -1.2 °F /  -18.4 °C -4.6 °F /  -20.3 °C 1012.1 in /  34269.7 hPa Calm     78 % 0.0 in /  0 mm
04:04 -1.4 °F /  -18.6 °C -4.7 °F /  -20.4 °C 1012.1 in /  34269.7 hPa Calm     78 % 0.0 in /  0 mm
04:09 -1.4 °F /  -18.6 °C -4.7 °F /  -20.4 °C 1012.1 in /  34269.7 hPa Calm     78 % 0.0 in /  0 mm
04:14 -1.6 °F /  -18.7 °C -4.9 °F /  -20.5 °C 1012.1 in /  34269.7 hPa Calm     78 % 0.0 in /  0 mm
04:19 -1.7 °F /  -18.7 °C -5.1 °F /  -20.6 °C 1012.1 in /  34269.7 hPa Calm     78 % 0.0 in /  0 mm
04:24 -1.7 °F /  -18.7 °C -4.9 °F /  -20.5 °C 1012.1 in /  34269.7 hPa Calm     79 % 0.0 in /  0 mm
04:29 -1.7 °F /  -18.7 °C -4.9 °F /  -20.5 °C 1012.1 in /  34269.7 hPa Calm     79 % 0.0 in /  0 mm
04:34 -1.7 °F /  -18.7 °C -4.9 °F /  -20.5 °C 1012.1 in /  34269.7 hPa Calm     79 % 0.0 in /  0 mm
04:39 -1.7 °F /  -18.7 °C -4.9 °F /  -20.5 °C 1012.1 in /  34269.7 hPa SSW 0.2 mph /  0.3 km/h 3.5 mph /  5.6 km/h 79 % 0.0 in /  0 mm
04:44 -1.7 °F /  -18.7 °C -4.9 °F /  -20.5 °C 1012.1 in /  34269.7 hPa SSW 0.3 mph /  0.5 km/h 3.5 mph /  5.6 km/h 79 % 0.0 in /  0 mm
04:49 -1.6 °F /  -18.7 °C -4.8 °F /  -20.4 °C 1012.1 in /  34269.7 hPa NNW 0.3 mph /  0.5 km/h 2.1 mph /  3.4 km/h 79 % 0.0 in /  0 mm
04:54 -1.6 °F /  -18.7 °C -4.8 °F /  -20.4 °C 1012.1 in /  34269.7 hPa Calm   2.6 mph /  4.2 km/h 79 % 0.0 in /  0 mm
04:59 -1.6 °F /  -18.7 °C -4.6 °F /  -20.3 °C 1012.1 in /  34269.7 hPa West 0.3 mph /  0.5 km/h 2.6 mph /  4.2 km/h 80 % 0.0 in /  0 mm
05:04 -1.6 °F /  -18.7 °C -4.6 °F /  -20.3 °C 1012.1 in /  34269.7 hPa West 0.3 mph /  0.5 km/h 2.6 mph /  4.2 km/h 80 % 0.0 in /  0 mm
05:09 -1.6 °F /  -18.7 °C -4.6 °F /  -20.3 °C 1012.1 in /  34269.7 hPa Calm     80 % 0.0 in /  0 mm
05:14 -1.6 °F /  -18.7 °C -4.6 °F /  -20.3 °C 1012.1 in /  34269.7 hPa Calm     80 % 0.0 in /  0 mm
05:19 -1.6 °F /  -18.7 °C -4.6 °F /  -20.3 °C 1012.1 in /  34269.7 hPa Calm     80 % 0.0 in /  0 mm
05:24 -1.6 °F /  -18.7 °C -4.6 °F /  -20.3 °C 1012.1 in /  34269.7 hPa Calm     80 % 0.0 in /  0 mm
05:29 -1.7 °F /  -18.7 °C -4.7 °F /  -20.4 °C 1012.1 in /  34269.7 hPa Calm     80 % 0.0 in /  0 mm
05:31 -1.8 °F /  -18.8 °C -4.8 °F /  -20.4 °C 1012.1 in /  34269.7 hPa Calm     80 % 0.0 in /  0 mm
05:36 -1.8 °F /  -18.8 °C -4.8 °F /  -20.4 °C 1012.1 in /  34269.7 hPa Calm     80 % 0.0 in /  0 mm
05:41 -1.9 °F /  -18.8 °C -4.9 °F /  -20.5 °C 1012.1 in /  34269.7 hPa Calm     80 % 0.0 in /  0 mm
05:46 -2.0 °F /  -18.9 °C -4.8 °F /  -20.4 °C 1012.1 in /  34269.7 hPa Calm     81 % 0.0 in /  0 mm
05:51 -2.2 °F /  -19 °C -5.0 °F /  -20.6 °C 1012.1 in /  34269.7 hPa Calm     81 % 0.0 in /  0 mm
05:56 -2.2 °F /  -19 °C -5.0 °F /  -20.6 °C 1011.1 in /  34235.8 hPa Calm     81 % 0.0 in /  0 mm
06:01 -2.3 °F /  -19.1 °C -5.1 °F /  -20.6 °C 1011.1 in /  34235.8 hPa Calm     81 % 0.0 in /  0 mm
06:06 -2.4 °F /  -19.1 °C -5.2 °F /  -20.7 °C 1011.1 in /  34235.8 hPa Calm     81 % 0.0 in /  0 mm
06:11 -2.6 °F /  -19.2 °C -5.4 °F /  -20.8 °C 1012.1 in /  34269.7 hPa Calm     81 % 0.0 in /  0 mm
06:16 -2.6 °F /  -19.2 °C -5.4 °F /  -20.8 °C 1012.1 in /  34269.7 hPa Calm     81 % 0.0 in /  0 mm
06:21 -2.8 °F /  -19.3 °C -5.6 °F /  -20.9 °C 1012.1 in /  34269.7 hPa SW 0.2 mph /  0.3 km/h 4.0 mph /  6.4 km/h 81 % 0.0 in /  0 mm
06:26 -2.8 °F /  -19.3 °C -5.6 °F /  -20.9 °C 1012.1 in /  34269.7 hPa WNW 0.5 mph /  0.8 km/h 4.0 mph /  6.4 km/h 81 % 0.0 in /  0 mm
06:31 -2.8 °F /  -19.3 °C -5.4 °F /  -20.8 °C 1012.1 in /  34269.7 hPa NW 1.4 mph /  2.3 km/h 3.5 mph /  5.6 km/h 82 % 0.0 in /  0 mm
06:36 -2.8 °F /  -19.3 °C -5.4 °F /  -20.8 °C 1012.1 in /  34269.7 hPa NW 1.1 mph /  1.8 km/h 3.5 mph /  5.6 km/h 82 % 0.0 in /  0 mm
06:41 -2.8 °F /  -19.3 °C -5.4 °F /  -20.8 °C 1011.1 in /  34235.8 hPa North 0.2 mph /  0.3 km/h   82 % 0.0 in /  0 mm
06:46 -2.7 °F /  -19.3 °C -5.3 °F /  -20.7 °C 1011.1 in /  34235.8 hPa Calm     82 % 0.0 in /  0 mm
06:51 -2.7 °F /  -19.3 °C -5.3 °F /  -20.7 °C 1011.1 in /  34235.8 hPa Calm     82 % 0.0 in /  0 mm
06:56 -2.6 °F /  -19.2 °C -5.1 °F /  -20.6 °C 1012.1 in /  34269.7 hPa Calm     83 % 0.0 in /  0 mm
07:01 -2.6 °F /  -19.2 °C -5.1 °F /  -20.6 °C 1012.1 in /  34269.7 hPa Calm     83 % 0.0 in /  0 mm
07:06 -2.6 °F /  -19.2 °C -5.1 °F /  -20.6 °C 1012.1 in /  34269.7 hPa Calm     83 % 0.0 in /  0 mm
07:11 -2.6 °F /  -19.2 °C -5.1 °F /  -20.6 °C 1012.1 in /  34269.7 hPa Calm     83 % 0.0 in /  0 mm
07:16 -2.6 °F /  -19.2 °C -5.1 °F /  -20.6 °C 1012.1 in /  34269.7 hPa Calm     83 % 0.0 in /  0 mm
07:21 -2.6 °F /  -19.2 °C -5.1 °F /  -20.6 °C 1012.1 in /  34269.7 hPa Calm     83 % 0.0 in /  0 mm
07:26 -2.6 °F /  -19.2 °C -5.1 °F /  -20.6 °C 1012.1 in /  34269.7 hPa Calm     83 % 0.0 in /  0 mm
07:31 -2.7 °F /  -19.3 °C -5.1 °F /  -20.6 °C 1012.1 in /  34269.7 hPa Calm     84 % 0.0 in /  0 mm
07:36 -2.7 °F /  -19.3 °C -5.1 °F /  -20.6 °C 1012.1 in /  34269.7 hPa Calm     84 % 0.0 in /  0 mm
07:41 -2.8 °F /  -19.3 °C -5.1 °F /  -20.6 °C 1012.1 in /  34269.7 hPa Calm     84 % 0.0 in /  0 mm
07:46 -2.8 °F /  -19.3 °C -5.1 °F /  -20.6 °C 1012.1 in /  34269.7 hPa Calm     84 % 0.0 in /  0 mm
07:51 -2.8 °F /  -19.3 °C -5.1 °F /  -20.6 °C 1012.1 in /  34269.7 hPa Calm     84 % 0.0 in /  0 mm
07:56 -2.9 °F /  -19.4 °C -5.2 °F /  -20.7 °C 1012.1 in /  34269.7 hPa Calm     84 % 0.0 in /  0 mm
08:01 -2.8 °F /  -19.3 °C -5.1 °F /  -20.6 °C 1012.1 in /  34269.7 hPa South 0.3 mph /  0.5 km/h 2.6 mph /  4.2 km/h 84 % 0.0 in /  0 mm
08:06 -2.8 °F /  -19.3 °C -5.1 °F /  -20.6 °C 1012.1 in /  34269.7 hPa South 0.3 mph /  0.5 km/h 2.6 mph /  4.2 km/h 84 % 0.0 in /  0 mm
08:11 -2.8 °F /  -19.3 °C -5.1 °F /  -20.6 °C 1012.1 in /  34269.7 hPa Calm     84 % 0.0 in /  0 mm
08:16 -2.8 °F /  -19.3 °C -5.1 °F /  -20.6 °C 1012.1 in /  34269.7 hPa Calm     84 % 0.0 in /  0 mm
08:21 -2.8 °F /  -19.3 °C -4.9 °F /  -20.5 °C 1012.1 in /  34269.7 hPa Calm     85 % 0.0 in /  0 mm
08:26 -2.7 °F /  -19.3 °C -4.9 °F /  -20.5 °C 1012.1 in /  34269.7 hPa Calm     85 % 0.0 in /  0 mm
08:31 -2.6 °F /  -19.2 °C -4.8 °F /  -20.4 °C 1012.1 in /  34269.7 hPa Calm     85 % 0.0 in /  0 mm
08:36 -2.5 °F /  -19.2 °C -4.7 °F /  -20.4 °C 1012.1 in /  34269.7 hPa Calm     85 % 0.0 in /  0 mm
08:41 -2.5 °F /  -19.2 °C -4.7 °F /  -20.4 °C 1012.1 in /  34269.7 hPa Calm     85 % 0.0 in /  0 mm
08:46 -2.3 °F /  -19.1 °C -4.5 °F /  -20.3 °C 1012.1 in /  34269.7 hPa Calm     85 % 0.0 in /  0 mm
08:51 -2.2 °F /  -19 °C -4.2 °F /  -20.1 °C 1012.1 in /  34269.7 hPa Calm     86 % 0.0 in /  0 mm
08:56 -2.0 °F /  -18.9 °C -4.1 °F /  -20.1 °C 1012.1 in /  34269.7 hPa Calm     86 % 0.0 in /  0 mm
09:01 -1.9 °F /  -18.8 °C -3.9 °F /  -19.9 °C 1012.1 in /  34269.7 hPa Calm     86 % 0.0 in /  0 mm
09:06 -1.7 °F /  -18.7 °C -3.7 °F /  -19.8 °C 1012.1 in /  34269.7 hPa Calm     86 % 0.0 in /  0 mm
09:11 -1.5 °F /  -18.6 °C -3.6 °F /  -19.8 °C 1012.1 in /  34269.7 hPa SSE 0.2 mph /  0.3 km/h 2.1 mph /  3.4 km/h 86 % 0.0 in /  0 mm
09:16 -1.4 °F /  -18.6 °C -3.4 °F /  -19.7 °C 1012.1 in /  34269.7 hPa SSE 0.3 mph /  0.5 km/h 2.1 mph /  3.4 km/h 86 % 0.0 in /  0 mm
09:21 -1.3 °F /  -18.5 °C -3.3 °F /  -19.6 °C 1012.1 in /  34269.7 hPa SSE 0.3 mph /  0.5 km/h 2.1 mph /  3.4 km/h 86 % 0.0 in /  0 mm
09:26 -1.0 °F /  -18.3 °C -2.9 °F /  -19.4 °C 1012.1 in /  34269.7 hPa SSE 0.3 mph /  0.5 km/h 2.1 mph /  3.4 km/h 87 % 0.0 in /  0 mm
09:32 -0.8 °F /  -18.2 °C -2.8 °F /  -19.3 °C 1012.1 in /  34269.7 hPa SSE 0.2 mph /  0.3 km/h 2.1 mph /  3.4 km/h 86 % 0.0 in /  0 mm
09:37 -0.7 °F /  -18.2 °C -2.8 °F /  -19.3 °C 1012.1 in /  34269.7 hPa ESE 1.0 mph /  1.6 km/h 3.5 mph /  5.6 km/h 86 % 0.0 in /  0 mm
09:42 -0.5 °F /  -18.1 °C -2.4 °F /  -19.1 °C 1012.1 in /  34269.7 hPa SE 1.4 mph /  2.3 km/h 4.0 mph /  6.4 km/h 87 % 0.0 in /  0 mm
09:47 -0.3 °F /  -17.9 °C -2.2 °F /  -19 °C 1012.1 in /  34269.7 hPa South 2.1 mph /  3.4 km/h 6.1 mph /  9.8 km/h 87 % 0.0 in /  0 mm
09:52 -0.1 °F /  -17.8 °C -2.0 °F /  -18.9 °C 1012.1 in /  34269.7 hPa SSW 3.4 mph /  5.5 km/h 6.1 mph /  9.8 km/h 87 % 0.0 in /  0 mm
09:57 0.2 °F /  -17.7 °C -1.7 °F /  -18.7 °C 1012.1 in /  34269.7 hPa South 4.2 mph /  6.8 km/h 5.5 mph /  8.9 km/h 87 % 0.0 in /  0 mm
10:02 0.4 °F /  -17.6 °C -1.5 °F /  -18.6 °C 1012.1 in /  34269.7 hPa South 4.2 mph /  6.8 km/h 5.5 mph /  8.9 km/h 87 % 0.0 in /  0 mm
10:07 0.5 °F /  -17.5 °C -1.4 °F /  -18.6 °C 1012.1 in /  34269.7 hPa SSW 3.7 mph /  6 km/h 4.7 mph /  7.6 km/h 87 % 0.0 in /  0 mm
10:12 0.7 °F /  -17.4 °C -1.2 °F /  -18.4 °C 1012.1 in /  34269.7 hPa SSW 2.7 mph /  4.3 km/h 4.7 mph /  7.6 km/h 87 % 0.0 in /  0 mm
10:17 0.9 °F /  -17.3 °C -0.9 °F /  -18.3 °C 1012.1 in /  34269.7 hPa SSW 2.9 mph /  4.7 km/h 5.8 mph /  9.3 km/h 88 % 0.0 in /  0 mm
10:22 1.0 °F /  -17.2 °C -0.9 °F /  -18.3 °C 1012.1 in /  34269.7 hPa SSW 3.9 mph /  6.3 km/h 6.1 mph /  9.8 km/h 87 % 0.0 in /  0 mm
10:27 1.2 °F /  -17.1 °C -0.7 °F /  -18.2 °C 1012.1 in /  34269.7 hPa SSW 4.2 mph /  6.8 km/h 6.1 mph /  9.8 km/h 87 % 0.0 in /  0 mm
10:32 1.4 °F /  -17 °C -0.6 °F /  -18.1 °C 1012.1 in /  34269.7 hPa South 3.9 mph /  6.3 km/h 5.5 mph /  8.9 km/h 87 % 0.0 in /  0 mm
10:37 1.6 °F /  -16.9 °C -0.3 °F /  -17.9 °C 1012.1 in /  34269.7 hPa SSW 2.9 mph /  4.7 km/h 5.8 mph /  9.3 km/h 87 % 0.0 in /  0 mm
10:42 1.7 °F /  -16.8 °C -0.2 °F /  -17.9 °C 1012.1 in /  34269.7 hPa SSW 2.7 mph /  4.3 km/h 5.8 mph /  9.3 km/h 87 % 0.0 in /  0 mm
10:47 1.8 °F /  -16.8 °C -0.1 °F /  -17.8 °C 1012.1 in /  34269.7 hPa SSW 3.4 mph /  5.5 km/h 4.7 mph /  7.6 km/h 87 % 0.0 in /  0 mm
10:52 1.9 °F /  -16.7 °C -0.1 °F /  -17.8 °C 1012.1 in /  34269.7 hPa SSW 3.4 mph /  5.5 km/h 5.0 mph /  8 km/h 87 % 0.0 in /  0 mm
10:57 2.1 °F /  -16.6 °C 0.0 °F /  -17.8 °C 1012.1 in /  34269.7 hPa SSW 3.4 mph /  5.5 km/h 5.0 mph /  8 km/h 86 % 0.0 in /  0 mm
11:02 2.2 °F /  -16.6 °C 0.1 °F /  -17.7 °C 1012.1 in /  34269.7 hPa SSW 3.9 mph /  6.3 km/h 5.0 mph /  8 km/h 86 % 0.0 in /  0 mm
11:07 2.4 °F /  -16.4 °C 0.3 °F /  -17.6 °C 1012.1 in /  34269.7 hPa SSW 3.9 mph /  6.3 km/h 5.8 mph /  9.3 km/h 86 % 0.0 in /  0 mm
11:12 2.8 °F /  -16.2 °C 0.7 °F /  -17.4 °C 1012.1 in /  34269.7 hPa SSW 3.9 mph /  6.3 km/h 6.1 mph /  9.8 km/h 86 % 0.0 in /  0 mm
11:17 2.8 °F /  -16.2 °C 0.7 °F /  -17.4 °C 1012.1 in /  34269.7 hPa SSW 3.1 mph /  5 km/h 6.1 mph /  9.8 km/h 86 % 0.0 in /  0 mm
11:22 2.8 °F /  -16.2 °C 0.7 °F /  -17.4 °C 1012.1 in /  34269.7 hPa SSW 2.6 mph /  4.2 km/h 6.1 mph /  9.8 km/h 86 % 0.0 in /  0 mm
11:27 3.4 °F /  -15.9 °C 1.1 °F /  -17.2 °C 1011.1 in /  34235.8 hPa SW 3.4 mph /  5.5 km/h 9.3 mph /  15 km/h 85 % 0.0 in /  0 mm
11:32 3.6 °F /  -15.8 °C 1.2 °F /  -17.1 °C 1011.1 in /  34235.8 hPa SSW 3.5 mph /  5.6 km/h 9.3 mph /  15 km/h 84 % 0.0 in /  0 mm
11:37 4.0 °F /  -15.6 °C 1.4 °F /  -17 °C 1011.1 in /  34235.8 hPa SSW 1.6 mph /  2.6 km/h 4.7 mph /  7.6 km/h 83 % 0.0 in /  0 mm
11:42 4.1 °F /  -15.5 °C 1.4 °F /  -17 °C 1011.1 in /  34235.8 hPa WSW 0.5 mph /  0.8 km/h 6.4 mph /  10.3 km/h 83 % 0.0 in /  0 mm
11:47 4.1 °F /  -15.5 °C 1.4 °F /  -17 °C 1011.1 in /  34235.8 hPa SW 1.9 mph /  3.1 km/h 6.4 mph /  10.3 km/h 83 % 0.0 in /  0 mm
11:52 4.1 °F /  -15.5 °C 1.4 °F /  -17 °C 1011.1 in /  34235.8 hPa SW 2.4 mph /  3.9 km/h 5.0 mph /  8 km/h 83 % 0.0 in /  0 mm
11:57 4.8 °F /  -15.1 °C 1.7 °F /  -16.8 °C 1011.1 in /  34235.8 hPa SW 1.9 mph /  3.1 km/h 4.7 mph /  7.6 km/h 80 % 0.0 in /  0 mm
12:02 4.8 °F /  -15.1 °C 1.7 °F /  -16.8 °C 1011.1 in /  34235.8 hPa ESE 2.1 mph /  3.4 km/h 4.7 mph /  7.6 km/h 80 % 0.0 in /  0 mm
12:05 4.8 °F /  -15.1 °C 1.7 °F /  -16.8 °C 1011.1 in /  34235.8 hPa ENE 2.1 mph /  3.4 km/h 5.5 mph /  8.9 km/h 80 % 0.0 in /  0 mm
12:10 4.8 °F /  -15.1 °C 1.3 °F /  -17.1 °C 1011.1 in /  34235.8 hPa ENE 3.7 mph /  6 km/h 6.1 mph /  9.8 km/h 78 % 0.0 in /  0 mm
12:15 4.8 °F /  -15.1 °C 1.3 °F /  -17.1 °C 1011.1 in /  34235.8 hPa ESE 3.7 mph /  6 km/h 6.1 mph /  9.8 km/h 78 % 0.0 in /  0 mm
12:20 4.8 °F /  -15.1 °C 1.3 °F /  -17.1 °C 1011.1 in /  34235.8 hPa SW 3.4 mph /  5.5 km/h 5.5 mph /  8.9 km/h 78 % 0.0 in /  0 mm
12:25 5.4 °F /  -14.8 °C 1.3 °F /  -17.1 °C 1012.1 in /  34269.7 hPa South 2.9 mph /  4.7 km/h 6.1 mph /  9.8 km/h 75 % 0.0 in /  0 mm
12:30 5.4 °F /  -14.8 °C 1.3 °F /  -17.1 °C 1012.1 in /  34269.7 hPa SSE 3.4 mph /  5.5 km/h 10.5 mph /  16.9 km/h 75 % 0.0 in /  0 mm
12:35 5.5 °F /  -14.7 °C 1.1 °F /  -17.2 °C 1012.1 in /  34269.7 hPa SE 3.2 mph /  5.1 km/h 10.5 mph /  16.9 km/h 73 % 0.0 in /  0 mm
12:40 5.5 °F /  -14.7 °C 1.1 °F /  -17.2 °C 1011.1 in /  34235.8 hPa East 2.3 mph /  3.7 km/h 7.9 mph /  12.7 km/h 73 % 0.0 in /  0 mm
12:45 5.5 °F /  -14.7 °C 1.1 °F /  -17.2 °C 1011.1 in /  34235.8 hPa East 2.9 mph /  4.7 km/h 6.4 mph /  10.3 km/h 73 % 0.0 in /  0 mm
12:50 5.5 °F /  -14.7 °C 1.1 °F /  -17.2 °C 1011.1 in /  34235.8 hPa ESE 3.9 mph /  6.3 km/h 10.5 mph /  16.9 km/h 73 % 0.0 in /  0 mm
12:55 5.5 °F /  -14.7 °C 1.1 °F /  -17.2 °C 1010.0 in /  34198.6 hPa ESE 5.1 mph /  8.2 km/h 10.5 mph /  16.9 km/h 73 % 0.0 in /  0 mm
13:00 5.5 °F /  -14.7 °C 0.3 °F /  -17.6 °C 1010.0 in /  34198.6 hPa ESE 6.4 mph /  10.3 km/h 13.7 mph /  22 km/h 69 % 0.0 in /  0 mm
13:05 5.5 °F /  -14.7 °C 0.3 °F /  -17.6 °C 1010.0 in /  34198.6 hPa ESE 6.4 mph /  10.3 km/h 13.7 mph /  22 km/h 69 % 0.0 in /  0 mm
13:10 5.5 °F /  -14.7 °C -0.6 °F /  -18.1 °C 1010.0 in /  34198.6 hPa East 4.0 mph /  6.4 km/h 7.6 mph /  12.2 km/h 65 % 0.0 in /  0 mm
13:15 5.6 °F /  -14.7 °C -0.4 °F /  -18 °C 1010.0 in /  34198.6 hPa SSW 2.9 mph /  4.7 km/h 6.1 mph /  9.8 km/h 65 % 0.0 in /  0 mm
13:20 5.5 °F /  -14.7 °C -0.8 °F /  -18.2 °C 1010.0 in /  34198.6 hPa SW 3.9 mph /  6.3 km/h 6.9 mph /  11.1 km/h 64 % 0.0 in /  0 mm
13:25 5.5 °F /  -14.7 °C -0.8 °F /  -18.2 °C 1009.0 in /  34164.7 hPa WSW 3.9 mph /  6.3 km/h 7.9 mph /  12.7 km/h 64 % 0.0 in /  0 mm
13:30 5.5 °F /  -14.7 °C -0.8 °F /  -18.2 °C 1009.0 in /  34164.7 hPa SW 2.9 mph /  4.7 km/h 7.9 mph /  12.7 km/h 64 % 0.0 in /  0 mm
13:35 5.5 °F /  -14.7 °C -0.8 °F /  -18.2 °C 1009.0 in /  34164.7 hPa ESE 4.2 mph /  6.8 km/h 12.2 mph /  19.6 km/h 64 % 0.0 in /  0 mm
13:40 5.5 °F /  -14.7 °C -0.8 °F /  -18.2 °C 1009.0 in /  34164.7 hPa SE 5.8 mph /  9.3 km/h 12.2 mph /  19.6 km/h 64 % 0.0 in /  0 mm
13:45 5.5 °F /  -14.7 °C -0.8 °F /  -18.2 °C 1009.0 in /  34164.7 hPa West 4.7 mph /  7.6 km/h 10.1 mph /  16.3 km/h 64 % 0.0 in /  0 mm
13:50 5.5 °F /  -14.7 °C -0.8 °F /  -18.2 °C 1009.0 in /  34164.7 hPa SSE 3.7 mph /  6 km/h 7.6 mph /  12.2 km/h 64 % 0.0 in /  0 mm
13:55 5.5 °F /  -14.7 °C -0.8 °F /  -18.2 °C 1009.0 in /  34164.7 hPa SE 4.2 mph /  6.8 km/h 10.1 mph /  16.3 km/h 64 % 0.0 in /  0 mm
14:00 5.5 °F /  -14.7 °C -0.8 °F /  -18.2 °C 1009.0 in /  34164.7 hPa SW 5.3 mph /  8.5 km/h 10.1 mph /  16.3 km/h 64 % 0.0 in /  0 mm
14:05 5.5 °F /  -14.7 °C -0.8 °F /  -18.2 °C 1009.0 in /  34164.7 hPa WSW 7.2 mph /  11.6 km/h 11.9 mph /  19.2 km/h 64 % 0.0 in /  0 mm
14:10 5.5 °F /  -14.7 °C -0.8 °F /  -18.2 °C 1008.0 in /  34130.9 hPa WSW 7.7 mph /  12.4 km/h 12.2 mph /  19.6 km/h 64 % 0.0 in /  0 mm
14:15 5.5 °F /  -14.7 °C -0.8 °F /  -18.2 °C 1008.0 in /  34130.9 hPa SW 5.8 mph /  9.3 km/h 12.2 mph /  19.6 km/h 64 % 0.0 in /  0 mm
14:20 5.5 °F /  -14.7 °C -0.8 °F /  -18.2 °C 1008.0 in /  34130.9 hPa WSW 4.2 mph /  6.8 km/h 6.9 mph /  11.1 km/h 64 % 0.0 in /  0 mm
14:25 5.5 °F /  -14.7 °C -0.8 °F /  -18.2 °C 1009.0 in /  34164.7 hPa WSW 3.1 mph /  5 km/h 11.1 mph /  17.9 km/h 64 % 0.0 in /  0 mm
14:30 5.5 °F /  -14.7 °C -0.8 °F /  -18.2 °C 1009.0 in /  34164.7 hPa WSW 4.2 mph /  6.8 km/h 11.9 mph /  19.2 km/h 64 % 0.0 in /  0 mm
14:35 5.5 °F /  -14.7 °C -0.8 °F /  -18.2 °C 1009.0 in /  34164.7 hPa SSW 4.5 mph /  7.2 km/h 11.9 mph /  19.2 km/h 64 % 0.0 in /  0 mm
14:40 5.4 °F /  -14.8 °C -3.4 °F /  -19.7 °C 1009.0 in /  34164.7 hPa SE 3.5 mph /  5.6 km/h 7.9 mph /  12.7 km/h 53 % 0.0 in /  0 mm
14:45 5.4 °F /  -14.8 °C -3.4 °F /  -19.7 °C 1009.0 in /  34164.7 hPa SW 3.9 mph /  6.3 km/h 9.3 mph /  15 km/h 53 % 0.0 in /  0 mm
14:50 5.4 °F /  -14.8 °C -3.4 °F /  -19.7 °C 1009.0 in /  34164.7 hPa WSW 5.1 mph /  8.2 km/h 9.3 mph /  15 km/h 53 % 0.0 in /  0 mm
14:55 4.8 °F /  -15.1 °C -4.2 °F /  -20.1 °C 1009.0 in /  34164.7 hPa WSW 6.4 mph /  10.3 km/h 9.0 mph /  14.5 km/h 52 % 0.0 in /  0 mm
15:00 4.6 °F /  -15.2 °C -4.4 °F /  -20.2 °C 1009.0 in /  34164.7 hPa SW 5.5 mph /  8.9 km/h 8.7 mph /  14 km/h 52 % 0.0 in /  0 mm
15:05 4.5 °F /  -15.3 °C -4.5 °F /  -20.3 °C 1009.0 in /  34164.7 hPa SW 3.5 mph /  5.6 km/h 5.5 mph /  8.9 km/h 52 % 0.0 in /  0 mm
15:10 4.4 °F /  -15.3 °C -4.9 °F /  -20.5 °C 1009.0 in /  34164.7 hPa SW 3.5 mph /  5.6 km/h 5.8 mph /  9.3 km/h 51 % 0.0 in /  0 mm
15:15 4.4 °F /  -15.3 °C -4.9 °F /  -20.5 °C 1009.0 in /  34164.7 hPa SW 3.4 mph /  5.5 km/h 5.8 mph /  9.3 km/h 51 % 0.0 in /  0 mm
15:20 4.4 °F /  -15.3 °C -4.9 °F /  -20.5 °C 1009.0 in /  34164.7 hPa WSW 1.8 mph /  2.9 km/h 3.5 mph /  5.6 km/h 51 % 0.0 in /  0 mm
15:25 4.4 °F /  -15.3 °C -4.9 °F /  -20.5 °C 1009.0 in /  34164.7 hPa West 1.8 mph /  2.9 km/h 4.3 mph /  6.9 km/h 51 % 0.0 in /  0 mm
15:30 4.4 °F /  -15.3 °C -4.9 °F /  -20.5 °C 1009.0 in /  34164.7 hPa WSW 2.4 mph /  3.9 km/h 4.3 mph /  6.9 km/h 51 % 0.0 in /  0 mm
15:35 3.8 °F /  -15.7 °C -5.4 °F /  -20.8 °C 1009.0 in /  34164.7 hPa WSW 1.0 mph /  1.6 km/h 4.0 mph /  6.4 km/h 51 % 0.0 in /  0 mm
15:40 3.8 °F /  -15.7 °C -5.4 °F /  -20.8 °C 1009.0 in /  34164.7 hPa Calm     51 % 0.0 in /  0 mm
15:45 3.8 °F /  -15.7 °C -5.4 °F /  -20.8 °C 1009.0 in /  34164.7 hPa Calm     51 % 0.0 in /  0 mm
15:50 3.6 °F /  -15.8 °C -5.3 °F /  -20.7 °C 1009.0 in /  34164.7 hPa Calm     52 % 0.0 in /  0 mm
15:55 3.5 °F /  -15.8 °C -5.4 °F /  -20.8 °C 1009.0 in /  34164.7 hPa Calm     52 % 0.0 in /  0 mm
16:00 3.5 °F /  -15.8 °C -5.4 °F /  -20.8 °C 1009.0 in /  34164.7 hPa SW 0.6 mph /  1 km/h 4.3 mph /  6.9 km/h 52 % 0.0 in /  0 mm
16:05 3.5 °F /  -15.8 °C -5.4 °F /  -20.8 °C 1009.0 in /  34164.7 hPa SW 0.8 mph /  1.3 km/h 4.3 mph /  6.9 km/h 52 % 0.0 in /  0 mm
16:10 3.1 °F /  -16.1 °C -5.6 °F /  -20.9 °C 1008.0 in /  34130.9 hPa SW 1.0 mph /  1.6 km/h 3.2 mph /  5.1 km/h 53 % 0.0 in /  0 mm
16:15 3.1 °F /  -16.1 °C -5.6 °F /  -20.9 °C 1008.0 in /  34130.9 hPa SW 2.3 mph /  3.7 km/h 3.5 mph /  5.6 km/h 53 % 0.0 in /  0 mm
16:20 2.8 °F /  -16.2 °C -5.6 °F /  -20.9 °C 1008.0 in /  34130.9 hPa SW 2.4 mph /  3.9 km/h 3.5 mph /  5.6 km/h 54 % 0.0 in /  0 mm
16:25 2.7 °F /  -16.3 °C -5.7 °F /  -20.9 °C 1008.0 in /  34130.9 hPa SW 1.1 mph /  1.8 km/h 3.5 mph /  5.6 km/h 54 % 0.0 in /  0 mm
16:30 2.6 °F /  -16.3 °C -5.8 °F /  -21 °C 1008.0 in /  34130.9 hPa West 0.6 mph /  1 km/h 4.3 mph /  6.9 km/h 54 % 0.0 in /  0 mm
16:35 2.4 °F /  -16.4 °C -5.7 °F /  -20.9 °C 1008.0 in /  34130.9 hPa WNW 2.4 mph /  3.9 km/h 5.0 mph /  8 km/h 55 % 0.0 in /  0 mm
16:40 2.4 °F /  -16.4 °C -5.7 °F /  -20.9 °C 1008.0 in /  34130.9 hPa NW 2.4 mph /  3.9 km/h 5.0 mph /  8 km/h 55 % 0.0 in /  0 mm
16:45 2.1 °F /  -16.6 °C -6.0 °F /  -21.1 °C 1008.0 in /  34130.9 hPa NW 1.8 mph /  2.9 km/h 4.7 mph /  7.6 km/h 55 % 0.0 in /  0 mm
16:50 2.1 °F /  -16.6 °C -6.0 °F /  -21.1 °C 1008.0 in /  34130.9 hPa NW 2.6 mph /  4.2 km/h 4.7 mph /  7.6 km/h 55 % 0.0 in /  0 mm
16:55 2.1 °F /  -16.6 °C -6.0 °F /  -21.1 °C 1008.0 in /  34130.9 hPa NW 1.3 mph /  2.1 km/h 4.7 mph /  7.6 km/h 55 % 0.0 in /  0 mm
17:00 2.1 °F /  -16.6 °C -6.0 °F /  -21.1 °C 1008.0 in /  34130.9 hPa NW 0.2 mph /  0.3 km/h 2.6 mph /  4.2 km/h 55 % 0.0 in /  0 mm
17:05 2.1 °F /  -16.6 °C -6.0 °F /  -21.1 °C 1008.0 in /  34130.9 hPa Calm     55 % 0.0 in /  0 mm
17:10 2.1 °F /  -16.6 °C -6.0 °F /  -21.1 °C 1008.0 in /  34130.9 hPa Calm     55 % 0.0 in /  0 mm
17:15 1.6 °F /  -16.9 °C -5.8 °F /  -21 °C 1008.0 in /  34130.9 hPa Calm     58 % 0.0 in /  0 mm
17:20 1.6 °F /  -16.9 °C -5.8 °F /  -21 °C 1008.0 in /  34130.9 hPa Calm   3.2 mph /  5.1 km/h 58 % 0.0 in /  0 mm
17:25 1.6 °F /  -16.9 °C -5.8 °F /  -21 °C 1008.0 in /  34130.9 hPa West 0.2 mph /  0.3 km/h 3.2 mph /  5.1 km/h 58 % 0.0 in /  0 mm
17:30 1.6 °F /  -16.9 °C -5.8 °F /  -21 °C 1008.0 in /  34130.9 hPa West 0.2 mph /  0.3 km/h 2.6 mph /  4.2 km/h 58 % 0.0 in /  0 mm
17:35 1.6 °F /  -16.9 °C -5.8 °F /  -21 °C 1008.0 in /  34130.9 hPa Calm     58 % 0.0 in /  0 mm
17:40 1.6 °F /  -16.9 °C -5.8 °F /  -21 °C 1009.0 in /  34164.7 hPa NNW 0.5 mph /  0.8 km/h 3.5 mph /  5.6 km/h 58 % 0.0 in /  0 mm
17:45 1.6 °F /  -16.9 °C -5.8 °F /  -21 °C 1009.0 in /  34164.7 hPa NNW 0.6 mph /  1 km/h 3.5 mph /  5.6 km/h 58 % 0.0 in /  0 mm
17:50 1.6 °F /  -16.9 °C -5.8 °F /  -21 °C 1009.0 in /  34164.7 hPa NNW 0.2 mph /  0.3 km/h 3.5 mph /  5.6 km/h 58 % 0.0 in /  0 mm
17:54 0.4 °F /  -17.6 °C -6.3 °F /  -21.3 °C 1009.0 in /  34164.7 hPa SW 0.2 mph /  0.3 km/h 3.5 mph /  5.6 km/h 61 % 0.0 in /  0 mm
17:59 0.4 °F /  -17.6 °C -6.3 °F /  -21.3 °C 1009.0 in /  34164.7 hPa SW 0.3 mph /  0.5 km/h 2.6 mph /  4.2 km/h 61 % 0.0 in /  0 mm
18:04 0.4 °F /  -17.6 °C -6.3 °F /  -21.3 °C 1009.0 in /  34164.7 hPa NW 0.2 mph /  0.3 km/h 2.1 mph /  3.4 km/h 61 % 0.0 in /  0 mm
18:09 0.4 °F /  -17.6 °C -6.3 °F /  -21.3 °C 1009.0 in /  34164.7 hPa SW 0.2 mph /  0.3 km/h 1.8 mph /  2.9 km/h 61 % 0.0 in /  0 mm
18:14 -0.3 °F /  -17.9 °C -6.5 °F /  -21.4 °C 1009.0 in /  34164.7 hPa SW 0.6 mph /  1 km/h 3.2 mph /  5.1 km/h 63 % 0.0 in /  0 mm
18:19 -0.3 °F /  -17.9 °C -6.5 °F /  -21.4 °C 1009.0 in /  34164.7 hPa SW 1.0 mph /  1.6 km/h 3.2 mph /  5.1 km/h 63 % 0.0 in /  0 mm
18:24 -0.3 °F /  -17.9 °C -6.5 °F /  -21.4 °C 1009.0 in /  34164.7 hPa SW 0.5 mph /  0.8 km/h 2.6 mph /  4.2 km/h 63 % 0.0 in /  0 mm
18:29 -0.3 °F /  -17.9 °C -6.5 °F /  -21.4 °C 1009.0 in /  34164.7 hPa Calm     63 % 0.0 in /  0 mm
18:34 -0.3 °F /  -17.9 °C -6.5 °F /  -21.4 °C 1009.0 in /  34164.7 hPa Calm     63 % 0.0 in /  0 mm
18:39 -0.3 °F /  -17.9 °C -6.5 °F /  -21.4 °C 1009.0 in /  34164.7 hPa Calm     63 % 0.0 in /  0 mm
18:44 -1.2 °F /  -18.4 °C -6.9 °F /  -21.6 °C 1009.0 in /  34164.7 hPa Calm     65 % 0.0 in /  0 mm
18:49 -1.2 °F /  -18.4 °C -6.9 °F /  -21.6 °C 1009.0 in /  34164.7 hPa Calm     65 % 0.0 in /  0 mm
18:54 -1.5 °F /  -18.6 °C -7.1 °F /  -21.7 °C 1009.0 in /  34164.7 hPa Calm     66 % 0.0 in /  0 mm
18:59 -1.5 °F /  -18.6 °C -7.1 °F /  -21.7 °C 1009.0 in /  34164.7 hPa Calm     66 % 0.0 in /  0 mm
19:04 -1.5 °F /  -18.6 °C -7.1 °F /  -21.7 °C 1009.0 in /  34164.7 hPa Calm     66 % 0.0 in /  0 mm
19:09 -1.7 °F /  -18.7 °C -7.1 °F /  -21.7 °C 1008.0 in /  34130.9 hPa Calm     67 % 0.0 in /  0 mm
19:14 -1.7 °F /  -18.7 °C -7.1 °F /  -21.7 °C 1008.0 in /  34130.9 hPa Calm     67 % 0.0 in /  0 mm
19:19 -1.7 °F /  -18.7 °C -7.1 °F /  -21.7 °C 1008.0 in /  34130.9 hPa Calm     67 % 0.0 in /  0 mm
19:24 -2.0 °F /  -18.9 °C -7.1 °F /  -21.7 °C 1009.0 in /  34164.7 hPa Calm     68 % 0.0 in /  0 mm
19:29 -2.1 °F /  -18.9 °C -7.1 °F /  -21.7 °C 1009.0 in /  34164.7 hPa Calm     69 % 0.0 in /  0 mm
19:34 -2.2 °F /  -19 °C -7.1 °F /  -21.7 °C 1009.0 in /  34164.7 hPa Calm   3.2 mph /  5.1 km/h 69 % 0.0 in /  0 mm
19:39 -2.2 °F /  -19 °C -7.1 °F /  -21.7 °C 1009.0 in /  34164.7 hPa SW 1.3 mph /  2.1 km/h 4.3 mph /  6.9 km/h 69 % 0.0 in /  0 mm
19:44 -2.2 °F /  -19 °C -7.1 °F /  -21.7 °C 1009.0 in /  34164.7 hPa SSW 1.3 mph /  2.1 km/h 4.3 mph /  6.9 km/h 69 % 0.0 in /  0 mm
19:49 -2.3 °F /  -19.1 °C -7.1 °F /  -21.7 °C 1009.0 in /  34164.7 hPa Calm     70 % 0.0 in /  0 mm
19:54 -2.3 °F /  -19.1 °C -7.1 °F /  -21.7 °C 1009.0 in /  34164.7 hPa Calm     70 % 0.0 in /  0 mm
19:59 -2.4 °F /  -19.1 °C -6.9 °F /  -21.6 °C 1009.0 in /  34164.7 hPa Calm     71 % 0.0 in /  0 mm
20:04 -2.4 °F /  -19.1 °C -6.9 °F /  -21.6 °C 1009.0 in /  34164.7 hPa Calm     71 % 0.0 in /  0 mm
20:09 -2.5 °F /  -19.2 °C -7.1 °F /  -21.7 °C 1008.0 in /  34130.9 hPa Calm     71 % 0.0 in /  0 mm
20:14 -2.5 °F /  -19.2 °C -6.8 °F /  -21.6 °C 1008.0 in /  34130.9 hPa Calm     72 % 0.0 in /  0 mm
20:19 -2.6 °F /  -19.2 °C -6.9 °F /  -21.6 °C 1008.0 in /  34130.9 hPa Calm     72 % 0.0 in /  0 mm
20:24 -2.6 °F /  -19.2 °C -6.9 °F /  -21.6 °C 1008.0 in /  34130.9 hPa Calm     72 % 0.0 in /  0 mm
20:29 -2.6 °F /  -19.2 °C -6.9 °F /  -21.6 °C 1008.0 in /  34130.9 hPa Calm     72 % 0.0 in /  0 mm
20:34 -2.7 °F /  -19.3 °C -6.9 °F /  -21.6 °C 1008.0 in /  34130.9 hPa Calm     73 % 0.0 in /  0 mm
20:39 -2.8 °F /  -19.3 °C -6.9 °F /  -21.6 °C 1008.0 in /  34130.9 hPa Calm     73 % 0.0 in /  0 mm
20:44 -2.8 °F /  -19.3 °C -6.9 °F /  -21.6 °C 1008.0 in /  34130.9 hPa Calm     73 % 0.0 in /  0 mm
20:49 -2.8 °F /  -19.3 °C -6.9 °F /  -21.6 °C 1008.0 in /  34130.9 hPa Calm     73 % 0.0 in /  0 mm
20:54 -2.8 °F /  -19.3 °C -6.8 °F /  -21.6 °C 1008.0 in /  34130.9 hPa Calm     74 % 0.0 in /  0 mm
20:59 -2.8 °F /  -19.3 °C -6.8 °F /  -21.6 °C 1008.0 in /  34130.9 hPa Calm     74 % 0.0 in /  0 mm
21:04 -2.8 °F /  -19.3 °C -6.8 °F /  -21.6 °C 1008.0 in /  34130.9 hPa Calm     74 % 0.0 in /  0 mm
21:09 -2.8 °F /  -19.3 °C -6.8 °F /  -21.6 °C 1008.0 in /  34130.9 hPa Calm     74 % 0.0 in /  0 mm
21:14 -2.8 °F /  -19.3 °C -6.6 °F /  -21.4 °C 1008.0 in /  34130.9 hPa Calm     75 % 0.0 in /  0 mm
21:19 -2.8 °F /  -19.3 °C -6.6 °F /  -21.4 °C 1008.0 in /  34130.9 hPa Calm     75 % 0.0 in /  0 mm
21:24 -2.7 °F /  -19.3 °C -6.5 °F /  -21.4 °C 1008.0 in /  34130.9 hPa Calm     75 % 0.0 in /  0 mm
21:29 -2.7 °F /  -19.3 °C -6.5 °F /  -21.4 °C 1008.0 in /  34130.9 hPa Calm     75 % 0.0 in /  0 mm
21:34 -2.7 °F /  -19.3 °C -6.3 °F /  -21.3 °C 1008.0 in /  34130.9 hPa Calm     76 % 0.0 in /  0 mm
21:39 -2.7 °F /  -19.3 °C -6.3 °F /  -21.3 °C 1008.0 in /  34130.9 hPa Calm     76 % 0.0 in /  0 mm
21:44 -2.6 °F /  -19.2 °C -6.2 °F /  -21.2 °C 1008.0 in /  34130.9 hPa Calm     76 % 0.0 in /  0 mm
21:49 -2.6 °F /  -19.2 °C -6.2 °F /  -21.2 °C 1008.0 in /  34130.9 hPa Calm     76 % 0.0 in /  0 mm
21:54 -2.6 °F /  -19.2 °C -6.1 °F /  -21.2 °C 1008.0 in /  34130.9 hPa Calm     77 % 0.0 in /  0 mm
22:00 -2.5 °F /  -19.2 °C -6.0 °F /  -21.1 °C 1008.0 in /  34130.9 hPa Calm     77 % 0.0 in /  0 mm
22:05 -2.4 °F /  -19.1 °C -5.9 °F /  -21.1 °C 1008.0 in /  34130.9 hPa Calm     77 % 0.0 in /  0 mm
22:10 -2.4 °F /  -19.1 °C -5.9 °F /  -21.1 °C 1008.0 in /  34130.9 hPa Calm     77 % 0.0 in /  0 mm
22:15 -2.3 °F /  -19.1 °C -5.6 °F /  -20.9 °C 1008.0 in /  34130.9 hPa Calm     78 % 0.0 in /  0 mm
22:20 -2.3 °F /  -19.1 °C -5.6 °F /  -20.9 °C 1008.0 in /  34130.9 hPa Calm     78 % 0.0 in /  0 mm
22:25 -2.3 °F /  -19.1 °C -5.6 °F /  -20.9 °C 1008.0 in /  34130.9 hPa Calm     78 % 0.0 in /  0 mm
22:30 -2.3 °F /  -19.1 °C -5.6 °F /  -20.9 °C 1008.0 in /  34130.9 hPa Calm     78 % 0.0 in /  0 mm
22:35 -2.2 °F /  -19 °C -5.3 °F /  -20.7 °C 1008.0 in /  34130.9 hPa Calm     79 % 0.0 in /  0 mm
22:40 -2.1 °F /  -18.9 °C -5.3 °F /  -20.7 °C 1008.0 in /  34130.9 hPa Calm     79 % 0.0 in /  0 mm
22:45 -2.1 °F /  -18.9 °C -5.3 °F /  -20.7 °C 1008.0 in /  34130.9 hPa Calm     79 % 0.0 in /  0 mm
22:50 -2.0 °F /  -18.9 °C -5.2 °F /  -20.7 °C 1008.0 in /  34130.9 hPa Calm     79 % 0.0 in /  0 mm
22:55 -1.9 °F /  -18.8 °C -5.1 °F /  -20.6 °C 1008.0 in /  34130.9 hPa Calm     79 % 0.0 in /  0 mm
23:00 -1.9 °F /  -18.8 °C -5.1 °F /  -20.6 °C 1008.0 in /  34130.9 hPa Calm     79 % 0.0 in /  0 mm
23:05 -1.9 °F /  -18.8 °C -5.1 °F /  -20.6 °C 1008.0 in /  34130.9 hPa Calm     79 % 0.0 in /  0 mm
23:10 -1.8 °F /  -18.8 °C -4.9 °F /  -20.5 °C 1008.0 in /  34130.9 hPa Calm     79 % 0.0 in /  0 mm
23:15 -1.8 °F /  -18.8 °C -4.8 °F /  -20.4 °C 1008.0 in /  34130.9 hPa Calm     80 % 0.0 in /  0 mm
23:20 -1.8 °F /  -18.8 °C -4.8 °F /  -20.4 °C 1008.0 in /  34130.9 hPa Calm     80 % 0.0 in /  0 mm
23:25 -1.7 °F /  -18.7 °C -4.7 °F /  -20.4 °C 1008.0 in /  34130.9 hPa Calm     80 % 0.0 in /  0 mm
23:30 -1.7 °F /  -18.7 °C -4.7 °F /  -20.4 °C 1008.0 in /  34130.9 hPa Calm     80 % 0.0 in /  0 mm
23:35 -1.7 °F /  -18.7 °C -4.7 °F /  -20.4 °C 1008.0 in /  34130.9 hPa Calm     80 % 0.0 in /  0 mm
23:40 -1.6 °F /  -18.7 °C -4.6 °F /  -20.3 °C 1008.0 in /  34130.9 hPa Calm     80 % 0.0 in /  0 mm
23:45 -1.6 °F /  -18.7 °C -4.6 °F /  -20.3 °C 1008.0 in /  34130.9 hPa Calm     80 % 0.0 in /  0 mm
23:50 -1.6 °F /  -18.7 °C -4.6 °F /  -20.3 °C 1008.0 in /  34130.9 hPa Calm     80 % 0.0 in /  0 mm
23:55 -1.6 °F /  -18.7 °C -4.6 °F /  -20.3 °C 1007.0 in /  34097 hPa Calm     80 % 0.0 in /  0 mm
Vremenska postaja Senovo
Podatki zbrani iz Weather Underground - 3 mb

Script developed by  Jim McMurry - jmcmurry@mwt.net Adapted for the template by  Wim van der Kuil - Leuven-Template.eu

Vremenski podatki so objavljeni na:

European Weather Network

WeatherCloud

Weather Underground

AWEKAS

HAMweather, WeatherForYou, PWS Weather

MapView

Geostik

Slovenia weather network

Oprema, ki se uporablja:

Vremenski program
Cumulus

Vremenski server
Asus

Cumulus

Asus